Time;durP1;ratioP1;P1;durP2;ratioP2;P2;SDS_P1;SDS_P2;PMS_P1;PMS_P2;Temp;Humidity;BMP_temperature;BMP_pressure;BME280_temperature;BME280_humidity;BME280_pressure;Samples;Min_cycle;Max_cycle;Signal;HPM_P1;HPM_P2
2021/12/30 00:00:30;;;;;;;56.13;25.65;;;;;;;;;;6249137;28;20045;-62
2021/12/30 00:03:42;;;;;;;70.70;29.52;;;;;;;;;;6248918;28;20057;-64
2021/12/30 00:06:42;;;;;;;48.00;23.73;;;;;;;;;;6248695;28;20049;-65
2021/12/30 00:09:43;;;;;;;87.07;33.97;;;;;;;;;;6244653;28;20132;-66
2021/12/30 00:12:44;;;;;;;69.32;29.08;;;;;;;;;;6249014;28;20067;-64
2021/12/30 00:15:45;;;;;;;93.60;35.42;;;;;;;;;;6247145;28;20132;-65
2021/12/30 00:18:47;;;;;;;79.05;32.80;;;;;;;;;;6245804;28;20052;-65
2021/12/30 00:21:48;;;;;;;51.00;22.53;;;;;;;;;;6246869;28;20164;-60
2021/12/30 00:24:48;;;;;;;53.38;23.73;;;;;;;;;;6246533;28;20083;-64
2021/12/30 00:27:49;;;;;;;42.60;20.85;;;;;;;;;;6248939;28;20471;-65
2021/12/30 00:30:51;;;;;;;44.42;21.70;;;;;;;;;;6247180;28;20054;-62
2021/12/30 00:33:52;;;;;;;43.38;22.08;;;;;;;;;;6247883;28;20181;-65
2021/12/30 00:36:52;;;;;;;41.22;21.13;;;;;;;;;;6244618;28;20054;-64
2021/12/30 00:39:54;;;;;;;39.28;20.67;;;;;;;;;;6244408;28;20692;-66
2021/12/30 00:42:56;;;;;;;41.28;18.90;;;;;;;;;;6250853;28;20143;-66
2021/12/30 00:45:56;;;;;;;37.55;19.50;;;;;;;;;;6248983;28;20135;-65
2021/12/30 00:48:57;;;;;;;41.25;18.08;;;;;;;;;;6248541;28;20056;-63
2021/12/30 00:51:58;;;;;;;37.30;18.85;;;;;;;;;;6249824;28;20505;-66
2021/12/30 00:54:59;;;;;;;37.08;18.55;;;;;;;;;;6250341;28;20058;-65
2021/12/30 00:58:00;;;;;;;40.65;18.42;;;;;;;;;;6241411;28;20187;-61
2021/12/30 01:01:03;;;;;;;39.23;18.77;;;;;;;;;;6244384;28;20464;-66
2021/12/30 01:04:04;;;;;;;42.15;18.88;;;;;;;;;;6245494;28;20087;-61
2021/12/30 01:07:05;;;;;;;44.80;20.70;;;;;;;;;;6243873;28;20670;-61
2021/12/30 01:10:11;;;;;;;42.78;22.13;;;;;;;;;;6241860;28;20143;-66
2021/12/30 01:13:17;;;;;;;48.90;24.13;;;;;;;;;;6242726;28;20122;-65
2021/12/30 01:16:19;;;;;;;50.03;25.10;;;;;;;;;;6242614;28;20160;-64
2021/12/30 01:22:26;;;;;;;45.10;23.17;;;;;;;;;;6242134;28;20137;-63
2021/12/30 01:25:26;;;;;;;48.65;24.13;;;;;;;;;;6242975;28;21075;-65
2021/12/30 01:28:28;;;;;;;53.25;25.10;;;;;;;;;;6239756;28;20052;-61
2021/12/30 01:31:29;;;;;;;44.88;21.85;;;;;;;;;;6239867;28;20045;-64
2021/12/30 01:34:31;;;;;;;40.08;20.80;;;;;;;;;;6241651;28;20080;-65
2021/12/30 01:37:32;;;;;;;;;;;;;;;;;;6240807;28;20053;-60
2021/12/30 01:40:33;;;;;;;43.33;20.30;;;;;;;;;;6245116;28;19927;-65
2021/12/30 01:43:35;;;;;;;46.22;22.75;;;;;;;;;;6252628;28;20052;-61
2021/12/30 01:46:38;;;;;;;45.22;22.52;;;;;;;;;;6261684;28;20060;-62
2021/12/30 01:49:39;;;;;;;48.78;23.80;;;;;;;;;;6268272;28;20068;-62
2021/12/30 01:52:40;;;;;;;47.28;23.85;;;;;;;;;;6264502;28;20124;-61
2021/12/30 01:55:42;;;;;;;46.45;23.58;;;;;;;;;;6267673;28;20044;-61
2021/12/30 01:58:42;;;;;;;;;;;;;;;;;;6267967;28;20053;-60
2021/12/30 02:01:45;;;;;;;46.30;21.52;;;;;;;;;;6265690;28;19924;-60
2021/12/30 02:04:46;;;;;;;60.42;25.73;;;;;;;;;;6267087;28;20076;-63
2021/12/30 02:07:46;;;;;;;98.28;36.17;;;;;;;;;;6267435;28;20048;-65
2021/12/30 02:10:49;;;;;;;90.18;32.88;;;;;;;;;;6262981;28;20045;-61
2021/12/30 02:13:51;;;;;;;121.15;40.00;;;;;;;;;;6266199;28;20049;-64
2021/12/30 02:16:52;;;;;;;;;;;;;;;;;;6266649;28;20111;-64
2021/12/30 02:20:39;;;;;;;77.07;28.10;;;;;;;;;;6264434;28;19974;-62
2021/12/30 02:23:40;;;;;;;102.05;34.30;;;;;;;;;;6253161;28;20048;-63
2021/12/30 02:26:41;;;;;;;149.88;44.72;;;;;;;;;;6256047;28;20080;-65
2021/12/30 02:29:42;;;;;;;72.68;28.92;;;;;;;;;;6257422;28;20040;-65
2021/12/30 02:32:42;;;;;;;61.53;27.98;;;;;;;;;;6253657;28;20140;-65
2021/12/30 02:35:43;;;;;;;68.22;27.00;;;;;;;;;;6253578;28;20060;-62
2021/12/30 02:38:46;;;;;;;73.78;26.73;;;;;;;;;;6256739;28;20053;-65
2021/12/30 02:41:47;;;;;;;71.13;26.77;;;;;;;;;;6256116;28;20037;-65
2021/12/30 02:44:47;;;;;;;44.80;22.33;;;;;;;;;;6250642;28;20137;-63
2021/12/30 02:47:48;;;;;;;40.22;20.45;;;;;;;;;;6249721;28;20060;-63
2021/12/30 02:50:51;;;;;;;59.88;25.63;;;;;;;;;;6254279;28;20503;-65
2021/12/30 02:53:53;;;;;;;54.38;24.05;;;;;;;;;;6250637;28;20116;-65
2021/12/30 02:56:53;;;;;;;38.72;20.75;;;;;;;;;;6252546;28;20048;-65
2021/12/30 02:59:54;;;;;;;45.05;22.90;;;;;;;;;;6256327;28;20098;-61
2021/12/30 03:02:56;;;;;;;50.13;23.40;;;;;;;;;;6247998;28;20508;-60
2021/12/30 03:05:59;;;;;;;46.85;23.45;;;;;;;;;;6254589;28;20052;-64
2021/12/30 03:08:59;;;;;;;;;;;;;;;;;;6257211;28;20415;-64
2021/12/30 03:12:00;;;;;;;50.35;24.60;;;;;;;;;;6254342;28;19932;-63
2021/12/30 03:15:01;;;;;;;51.92;25.23;;;;;;;;;;6251807;28;20152;-65
2021/12/30 03:18:03;;;;;;;48.13;24.92;;;;;;;;;;6254536;28;20076;-64
2021/12/30 03:21:05;;;;;;;53.30;24.80;;;;;;;;;;6254373;28;20545;-62
2021/12/30 03:24:06;;;;;;;77.55;32.60;;;;;;;;;;6250043;28;20077;-63
2021/12/30 03:27:07;;;;;;;90.57;34.78;;;;;;;;;;6249807;28;20053;-64
2021/12/30 03:30:12;;;;;;;89.38;36.33;;;;;;;;;;6249333;28;20047;-63
2021/12/30 03:33:13;;;;;;;138.80;46.22;;;;;;;;;;6250801;28;20132;-62
2021/12/30 03:36:15;;;;;;;94.68;36.50;;;;;;;;;;6255429;28;20072;-62
2021/12/30 03:39:15;;;;;;;106.40;40.10;;;;;;;;;;6252164;28;20597;-62
2021/12/30 03:42:17;;;;;;;55.92;26.60;;;;;;;;;;6254582;28;20041;-65
2021/12/30 03:45:17;;;;;;;47.58;24.30;;;;;;;;;;6252051;28;20195;-63
2021/12/30 03:48:18;;;;;;;67.78;30.35;;;;;;;;;;6259309;28;20089;-62
2021/12/30 03:51:22;;;;;;;67.13;29.70;;;;;;;;;;6254002;28;20492;-64
2021/12/30 03:54:23;;;;;;;70.50;33.47;;;;;;;;;;6252416;28;20053;-63
2021/12/30 03:57:23;;;;;;;62.60;29.30;;;;;;;;;;6254825;28;20963;-64
2021/12/30 04:00:26;;;;;;;59.20;28.08;;;;;;;;;;6255295;28;20072;-65
2021/12/30 04:03:27;;;;;;;72.60;34.05;;;;;;;;;;6246889;28;20095;-65
2021/12/30 04:06:28;;;;;;;68.57;31.05;;;;;;;;;;6262854;28;20400;-62
2021/12/30 04:09:28;;;;;;;51.28;26.02;;;;;;;;;;6263586;28;20048;-64
2021/12/30 04:12:29;;;;;;;49.90;26.52;;;;;;;;;;6255764;28;20045;-64
2021/12/30 04:15:30;;;;;;;51.75;26.05;;;;;;;;;;6252521;28;20144;-64
2021/12/30 04:18:31;;;;;;;53.13;26.77;;;;;;;;;;6253879;28;20094;-62
2021/12/30 04:21:31;;;;;;;53.72;28.50;;;;;;;;;;6254707;28;20045;-65
2021/12/30 04:24:32;;;;;;;56.33;27.30;;;;;;;;;;6249702;28;20450;-64
2021/12/30 04:27:33;;;;;;;53.15;26.35;;;;;;;;;;6254462;28;22398;-64
2021/12/30 04:30:36;;;;;;;52.55;26.77;;;;;;;;;;6255234;28;20075;-64
2021/12/30 04:33:37;;;;;;;53.60;26.20;;;;;;;;;;6252793;28;20044;-66
2021/12/30 04:36:38;;;;;;;49.28;25.35;;;;;;;;;;6259289;28;20557;-62
2021/12/30 04:39:38;;;;;;;52.47;23.80;;;;;;;;;;6260105;28;20124;-65
2021/12/30 04:42:40;;;;;;;50.80;22.98;;;;;;;;;;6254311;28;20052;-61
2021/12/30 04:45:42;;;;;;;51.25;25.75;;;;;;;;;;6255282;28;20045;-62
2021/12/30 04:48:43;;;;;;;61.83;31.98;;;;;;;;;;6253160;28;20068;-64
2021/12/30 04:51:44;;;;;;;61.10;31.05;;;;;;;;;;6258261;28;20415;-65
2021/12/30 04:54:44;;;;;;;57.38;28.48;;;;;;;;;;6255774;28;20045;-63
2021/12/30 04:57:45;;;;;;;56.65;27.00;;;;;;;;;;6258459;28;20052;-62
2021/12/30 05:00:46;;;;;;;50.05;24.65;;;;;;;;;;6259171;28;20052;-61
2021/12/30 05:03:47;;;;;;;51.92;24.38;;;;;;;;;;6256649;28;20559;-63
2021/12/30 05:06:48;;;;;;;52.03;25.50;;;;;;;;;;6258078;28;20129;-64
2021/12/30 05:09:48;;;;;;;51.17;25.52;;;;;;;;;;6258804;28;20444;-62
2021/12/30 05:12:49;;;;;;;52.20;25.85;;;;;;;;;;6258455;28;20096;-61
2021/12/30 05:15:50;;;;;;;47.85;25.80;;;;;;;;;;6256654;28;20049;-61
2021/12/30 05:18:55;;;;;;;51.35;26.38;;;;;;;;;;6259224;28;20141;-63
2021/12/30 05:21:57;;;;;;;59.53;30.50;;;;;;;;;;6256376;28;20053;-59
2021/12/30 05:24:57;;;;;;;57.27;32.60;;;;;;;;;;6251483;28;20049;-61
2021/12/30 05:27:58;;;;;;;57.08;30.83;;;;;;;;;;6257260;28;20137;-65
2021/12/30 05:30:59;;;;;;;51.80;26.02;;;;;;;;;;6255396;28;20053;-65
2021/12/30 05:34:00;;;;;;;45.97;26.15;;;;;;;;;;6257749;28;20575;-64
2021/12/30 05:37:01;;;;;;;48.75;25.73;;;;;;;;;;6257176;28;20064;-63
2021/12/30 05:40:04;;;;;;;39.92;23.38;;;;;;;;;;6257495;28;20049;-63
2021/12/30 05:43:05;;;;;;;45.92;26.30;;;;;;;;;;6253557;28;20045;-62
2021/12/30 05:46:06;;;;;;;44.65;22.77;;;;;;;;;;6255017;28;20124;-63
2021/12/30 05:49:07;;;;;;;44.10;23.27;;;;;;;;;;6255637;28;20103;-61
2021/12/30 05:52:07;;;;;;;41.97;22.55;;;;;;;;;;6255237;28;20392;-64
2021/12/30 05:55:08;;;;;;;46.05;21.65;;;;;;;;;;6251755;28;20511;-61
2021/12/30 05:58:09;;;;;;;44.47;22.92;;;;;;;;;;6258402;28;20053;-61
2021/12/30 06:01:10;;;;;;;47.85;23.45;;;;;;;;;;6255261;28;20067;-65
2021/12/30 06:04:10;;;;;;;47.10;25.35;;;;;;;;;;6248337;28;20483;-65
2021/12/30 06:07:11;;;;;;;52.80;27.13;;;;;;;;;;6256017;28;20442;-64
2021/12/30 06:10:12;;;;;;;59.85;31.02;;;;;;;;;;6253870;28;20135;-65
2021/12/30 06:13:13;;;;;;;67.00;33.08;;;;;;;;;;6253272;28;20060;-66
2021/12/30 06:16:14;;;;;;;63.63;33.70;;;;;;;;;;6259668;28;20155;-63
2021/12/30 06:19:15;;;;;;;63.35;34.00;;;;;;;;;;6254505;28;20170;-61
2021/12/30 06:22:16;;;;;;;63.83;32.50;;;;;;;;;;6254422;28;20045;-64
2021/12/30 06:25:16;;;;;;;89.82;40.95;;;;;;;;;;6255708;28;20083;-62
2021/12/30 06:28:17;;;;;;;80.00;40.65;;;;;;;;;;6251412;28;20041;-63
2021/12/30 06:31:18;;;;;;;65.95;33.25;;;;;;;;;;6257874;28;20044;-66
2021/12/30 06:34:19;;;;;;;68.63;34.85;;;;;;;;;;6254110;28;20183;-63
2021/12/30 06:37:20;;;;;;;70.35;38.72;;;;;;;;;;6251852;28;20048;-64
2021/12/30 06:40:20;;;;;;;52.80;28.33;;;;;;;;;;6256413;28;20143;-61
2021/12/30 06:43:21;;;;;;;47.95;22.92;;;;;;;;;;6250378;28;20514;-66
2021/12/30 06:46:23;;;;;;;43.92;22.70;;;;;;;;;;6256081;28;20583;-63
2021/12/30 06:49:25;;;;;;;44.42;21.60;;;;;;;;;;6256207;28;20076;-62
2021/12/30 06:52:25;;;;;;;41.45;20.92;;;;;;;;;;6261740;28;20877;-60
2021/12/30 06:55:26;;;;;;;44.13;21.08;;;;;;;;;;6263304;28;20044;-63
2021/12/30 06:58:27;;;;;;;40.60;19.92;;;;;;;;;;6257632;28;20517;-59
2021/12/30 07:01:31;;;;;;;38.25;20.40;;;;;;;;;;6258844;28;20060;-61
2021/12/30 07:04:32;;;;;;;41.95;20.55;;;;;;;;;;6260659;28;20048;-61
2021/12/30 07:07:32;;;;;;;40.40;19.25;;;;;;;;;;6267055;28;20544;-61
2021/12/30 07:10:33;;;;;;;39.75;19.30;;;;;;;;;;6263538;28;20198;-60
2021/12/30 07:13:34;;;;;;;37.50;18.08;;;;;;;;;;6258371;28;20147;-61
2021/12/30 07:16:34;;;;;;;42.42;19.27;;;;;;;;;;6265132;28;20044;-62
2021/12/30 07:19:35;;;;;;;38.00;18.17;;;;;;;;;;6263425;28;20052;-62
2021/12/30 07:22:36;;;;;;;36.22;18.05;;;;;;;;;;6260317;28;20140;-59
2021/12/30 07:25:37;;;;;;;38.25;16.98;;;;;;;;;;6252841;28;20052;-59
2021/12/30 07:28:37;;;;;;;40.30;18.98;;;;;;;;;;6260044;28;20532;-62
2021/12/30 07:31:38;;;;;;;39.97;18.33;;;;;;;;;;6265607;28;20483;-61
2021/12/30 07:34:39;;;;;;;39.38;18.85;;;;;;;;;;6258677;28;20084;-62
2021/12/30 07:37:40;;;;;;;38.67;17.70;;;;;;;;;;6261856;28;20049;-61
2021/12/30 07:40:40;;;;;;;36.80;18.23;;;;;;;;;;6260003;28;20067;-60
2021/12/30 07:43:41;;;;;;;38.67;17.88;;;;;;;;;;6262230;28;20498;-62
2021/12/30 07:46:42;;;;;;;42.70;19.23;;;;;;;;;;6261777;28;20048;-61
2021/12/30 07:49:43;;;;;;;40.15;18.63;;;;;;;;;;6259088;28;20049;-60
2021/12/30 07:52:43;;;;;;;36.40;18.60;;;;;;;;;;6263176;28;20511;-61
2021/12/30 07:55:44;;;;;;;35.63;17.15;;;;;;;;;;6263173;28;20049;-60
2021/12/30 07:58:45;;;;;;;35.58;17.85;;;;;;;;;;6258523;28;20119;-61
2021/12/30 08:01:45;;;;;;;37.28;18.25;;;;;;;;;;6265194;28;20041;-61
2021/12/30 08:04:46;;;;;;;34.15;16.23;;;;;;;;;;6256957;28;20141;-67
2021/12/30 08:07:47;;;;;;;34.13;17.13;;;;;;;;;;6257974;28;20057;-61
2021/12/30 08:10:48;;;;;;;40.88;19.23;;;;;;;;;;6271501;28;20419;-60
2021/12/30 08:13:49;;;;;;;32.33;15.75;;;;;;;;;;6269632;28;20117;-61
2021/12/30 08:16:49;;;;;;;41.30;27.08;;;;;;;;;;6267865;28;20487;-64
2021/12/30 08:19:50;;;;;;;38.97;18.55;;;;;;;;;;6248522;28;20572;-61
2021/12/30 08:22:51;;;;;;;32.17;17.73;;;;;;;;;;6257209;28;20145;-63
2021/12/30 08:25:52;;;;;;;31.08;16.35;;;;;;;;;;6262429;28;20064;-61
2021/12/30 08:28:52;;;;;;;31.33;15.38;;;;;;;;;;6258157;28;20132;-60
2021/12/30 08:31:53;;;;;;;31.27;15.68;;;;;;;;;;6269425;28;20045;-61
2021/12/30 08:34:54;;;;;;;33.33;16.75;;;;;;;;;;6262372;28;20037;-66
2021/12/30 08:37:54;;;;;;;32.65;16.60;;;;;;;;;;6248958;28;20050;-60
2021/12/30 08:40:55;;;;;;;28.10;14.95;;;;;;;;;;6261527;28;20555;-60
2021/12/30 08:43:56;;;;;;;27.70;15.20;;;;;;;;;;6265557;28;20396;-60
2021/12/30 08:46:56;;;;;;;28.85;14.63;;;;;;;;;;6267674;28;20084;-60
2021/12/30 08:49:58;;;;;;;30.33;14.60;;;;;;;;;;6259959;28;20056;-66
2021/12/30 08:52:59;;;;;;;30.85;14.57;;;;;;;;;;6266025;28;20049;-66
2021/12/30 08:56:00;;;;;;;29.42;14.50;;;;;;;;;;6261786;28;20081;-66
2021/12/30 08:59:01;;;;;;;30.75;14.40;;;;;;;;;;6252525;28;20073;-74
2021/12/30 09:02:03;;;;;;;31.00;15.38;;;;;;;;;;6261963;28;20475;-60
2021/12/30 09:05:05;;;;;;;28.30;14.25;;;;;;;;;;6264074;28;20053;-62
2021/12/30 09:08:06;;;;;;;45.97;27.73;;;;;;;;;;6266865;28;20411;-60
2021/12/30 09:11:07;;;;;;;31.73;14.97;;;;;;;;;;6259910;28;20053;-59
2021/12/30 09:14:08;;;;;;;31.52;15.73;;;;;;;;;;6256119;28;20356;-61
2021/12/30 09:17:08;;;;;;;31.55;15.35;;;;;;;;;;6265563;28;20153;-62
2021/12/30 09:20:10;;;;;;;28.65;15.82;;;;;;;;;;6266057;28;20068;-61
2021/12/30 09:23:15;;;;;;;29.00;14.50;;;;;;;;;;6260061;28;20053;-61
2021/12/30 09:26:15;;;;;;;23.50;13.20;;;;;;;;;;6262348;28;20409;-63
2021/12/30 09:29:16;;;;;;;25.42;13.45;;;;;;;;;;6269862;28;20059;-57
2021/12/30 09:32:17;;;;;;;26.58;13.18;;;;;;;;;;6265982;28;21027;-61
2021/12/30 09:35:18;;;;;;;33.53;15.82;;;;;;;;;;6245457;28;20535;-59
2021/12/30 09:38:20;;;;;;;28.25;15.05;;;;;;;;;;6261463;28;20142;-61
2021/12/30 09:41:20;;;;;;;23.98;12.95;;;;;;;;;;6267960;28;20407;-61
2021/12/30 09:44:22;;;;;;;25.95;13.32;;;;;;;;;;6264451;28;20033;-60
2021/12/30 09:47:23;;;;;;;24.70;12.88;;;;;;;;;;6253455;28;20056;-60
2021/12/30 09:50:28;;;;;;;24.88;15.18;;;;;;;;;;6251659;28;20460;-61
2021/12/30 09:53:28;;;;;;;23.40;12.55;;;;;;;;;;6255899;28;20045;-60
2021/12/30 09:56:29;;;;;;;25.48;13.25;;;;;;;;;;6253076;28;20127;-60
2021/12/30 09:59:31;;;;;;;23.17;12.63;;;;;;;;;;6266093;28;20041;-60
2021/12/30 10:02:32;;;;;;;25.50;13.38;;;;;;;;;;6252688;28;20053;-60
2021/12/30 10:05:36;;;;;;;25.15;13.93;;;;;;;;;;6258701;28;20076;-61
2021/12/30 10:08:42;;;;;;;26.05;14.90;;;;;;;;;;6249916;28;20077;-59
2021/12/30 10:11:51;;;;;;;24.15;13.30;;;;;;;;;;6261692;28;20053;-59
2021/12/30 10:14:53;;;;;;;25.77;13.82;;;;;;;;;;6263338;28;20056;-59
2021/12/30 10:18:00;;;;;;;25.10;14.50;;;;;;;;;;6248723;28;20045;-59
2021/12/30 10:21:11;;;;;;;25.70;15.23;;;;;;;;;;6257323;28;20129;-59
2021/12/30 10:24:12;;;;;;;23.10;12.88;;;;;;;;;;6246331;28;20049;-60
2021/12/30 10:27:30;;;;;;;24.42;12.50;;;;;;;;;;6251360;28;20049;-60
2021/12/30 10:30:35;;;;;;;39.08;18.75;;;;;;;;;;6250634;28;20436;-59
2021/12/30 10:33:35;;;;;;;27.58;15.15;;;;;;;;;;6246874;28;20476;-59
2021/12/30 10:36:47;;;;;;;24.75;14.13;;;;;;;;;;6253239;28;20049;-60
2021/12/30 10:39:48;;;;;;;26.60;13.82;;;;;;;;;;6274236;28;20537;-61
2021/12/30 10:42:49;;;;;;;23.95;13.65;;;;;;;;;;6270769;28;20052;-60
2021/12/30 10:46:10;;;;;;;26.58;14.07;;;;;;;;;;6268835;28;20136;-61
2021/12/30 10:49:22;;;;;;;32.83;19.40;;;;;;;;;;6270715;28;20056;-61
2021/12/30 10:52:23;;;;;;;;;;;;;;;;;;6267317;28;20052;-60
2021/12/30 10:55:25;;;;;;;23.65;13.10;;;;;;;;;;6278224;28;19929;-61
2021/12/30 10:58:25;;;;;;;27.63;13.47;;;;;;;;;;6269793;28;20052;-60
2021/12/30 11:01:26;;;;;;;24.23;12.68;;;;;;;;;;6267169;28;20135;-60
2021/12/30 11:04:40;;;;;;;24.38;13.18;;;;;;;;;;6272412;28;20143;-60
2021/12/30 11:07:51;;;;;;;24.08;13.15;;;;;;;;;;6272774;28;20056;-60
2021/12/30 11:10:52;;;;;;;25.77;13.30;;;;;;;;;;6267266;28;20390;-59
2021/12/30 11:14:04;;;;;;;40.33;21.75;;;;;;;;;;6273412;28;20146;-60
2021/12/30 11:17:11;;;;;;;;;;;;;;;;;;6273137;28;20122;-60
2021/12/30 11:20:15;;;;;;;26.52;14.52;;;;;;;;;;6268612;28;19979;-60
2021/12/30 11:23:17;;;;;;;27.17;13.80;;;;;;;;;;6289930;28;20075;-58
2021/12/30 11:26:17;;;;;;;22.50;12.50;;;;;;;;;;6288381;28;20059;-58
2021/12/30 11:29:18;;;;;;;26.77;15.50;;;;;;;;;;6279863;28;20127;-58
2021/12/30 11:32:22;;;;;;;30.25;18.73;;;;;;;;;;6289568;28;20041;-60
2021/12/30 11:35:26;;;;;;;27.63;14.70;;;;;;;;;;6280131;28;20075;-59
2021/12/30 11:38:27;;;;;;;25.08;13.85;;;;;;;;;;6277207;28;20064;-58
2021/12/30 11:41:28;;;;;;;24.73;14.68;;;;;;;;;;6278457;28;20056;-58
2021/12/30 11:44:42;;;;;;;29.27;13.93;;;;;;;;;;6276948;28;20045;-59
2021/12/30 11:47:44;;;;;;;27.98;13.98;;;;;;;;;;6278312;28;20064;-59
2021/12/30 11:50:44;;;;;;;31.23;14.80;;;;;;;;;;6277570;28;20055;-57
2021/12/30 11:53:46;;;;;;;23.88;13.25;;;;;;;;;;6275201;28;20571;-56
2021/12/30 11:57:22;;;;;;;34.38;19.05;;;;;;;;;;6267025;28;20476;-60
2021/12/30 12:00:36;;;;;;;26.00;13.60;;;;;;;;;;6273746;28;20566;-59
2021/12/30 12:03:40;;;;;;;27.65;15.43;;;;;;;;;;6275486;28;20048;-62
2021/12/30 12:06:52;;;;;;;27.17;14.73;;;;;;;;;;6271624;28;20495;-59
2021/12/30 12:09:53;;;;;;;;;;;;;;;;;;6277952;28;20827;-58
2021/12/30 12:12:54;;;;;;;24.67;14.25;;;;;;;;;;6269997;28;19974;-59
2021/12/30 12:15:54;;;;;;;26.77;13.45;;;;;;;;;;6269779;28;20081;-61
2021/12/30 12:19:05;;;;;;;27.75;13.63;;;;;;;;;;6270538;28;20048;-62
2021/12/30 12:22:28;;;;;;;26.90;13.90;;;;;;;;;;6272664;28;20052;-62
2021/12/30 12:25:29;;;;;;;24.58;14.13;;;;;;;;;;6269314;28;20555;-58
2021/12/30 12:28:30;;;;;;;27.55;15.60;;;;;;;;;;6274656;28;20048;-57
2021/12/30 12:31:57;;;;;;;30.42;17.25;;;;;;;;;;6268111;28;20044;-61
2021/12/30 12:35:01;;;;;;;46.67;22.48;;;;;;;;;;6270788;28;20049;-56
2021/12/30 12:38:06;;;;;;;25.35;14.38;;;;;;;;;;6270287;28;20055;-62
2021/12/30 12:41:30;;;;;;;36.90;21.67;;;;;;;;;;6269445;28;20492;-60
2021/12/30 12:44:32;;;;;;;25.90;13.57;;;;;;;;;;6267577;28;20515;-58
2021/12/30 12:47:32;;;;;;;36.38;20.15;;;;;;;;;;6277124;28;20045;-62
2021/12/30 12:50:38;;;;;;;32.90;15.95;;;;;;;;;;6275087;28;20037;-58
2021/12/30 12:53:45;;;;;;;26.65;15.88;;;;;;;;;;6274899;28;20156;-59
2021/12/30 12:56:46;;;;;;;27.05;17.90;;;;;;;;;;6272911;28;20045;-62
2021/12/30 12:59:47;;;;;;;31.90;19.67;;;;;;;;;;6273277;28;20533;-60
2021/12/30 13:02:48;;;;;;;22.85;14.85;;;;;;;;;;6288372;28;20102;-61
2021/12/30 13:06:00;;;;;;;23.17;13.88;;;;;;;;;;6274441;28;20558;-58
2021/12/30 13:09:07;;;;;;;25.17;13.57;;;;;;;;;;6270214;28;20075;-63
2021/12/30 13:12:09;;;;;;;26.55;13.88;;;;;;;;;;6268292;28;20431;-60
2021/12/30 13:15:12;;;;;;;27.05;15.07;;;;;;;;;;6265994;28;20144;-60
2021/12/30 13:18:14;;;;;;;24.45;13.85;;;;;;;;;;6271144;28;20867;-60
2021/12/30 13:21:15;;;;;;;27.77;14.55;;;;;;;;;;6269311;28;20085;-61
2021/12/30 13:24:36;;;;;;;32.58;15.50;;;;;;;;;;6272172;28;20082;-57
2021/12/30 13:27:41;;;;;;;28.58;15.50;;;;;;;;;;6268107;28;20147;-59
2021/12/30 13:30:41;;;;;;;33.30;18.10;;;;;;;;;;6268611;28;20048;-57
2021/12/30 13:33:52;;;;;;;50.30;27.33;;;;;;;;;;6267489;28;20059;-59
2021/12/30 13:37:10;;;;;;;35.60;18.77;;;;;;;;;;6265709;28;20186;-56
2021/12/30 13:40:30;;;;;;;37.83;20.25;;;;;;;;;;6269818;28;20135;-61
2021/12/30 13:43:31;;;;;;;43.53;20.85;;;;;;;;;;6271985;28;20116;-59
2021/12/30 13:46:31;;;;;;;37.30;21.13;;;;;;;;;;6271311;28;20068;-57
2021/12/30 13:49:32;;;;;;;43.92;23.17;;;;;;;;;;6273182;28;20048;-56
2021/12/30 13:52:38;;;;;;;47.80;28.10;;;;;;;;;;6268180;28;20380;-57
2021/12/30 13:55:47;;;;;;;45.47;25.25;;;;;;;;;;6264843;28;20194;-62
2021/12/30 13:58:49;;;;;;;47.92;25.13;;;;;;;;;;6269507;28;20557;-57
2021/12/30 14:01:50;;;;;;;45.73;24.57;;;;;;;;;;6276433;28;20665;-57
2021/12/30 14:04:50;;;;;;;44.35;23.13;;;;;;;;;;6266470;28;20052;-58
2021/12/30 14:07:52;;;;;;;46.25;23.45;;;;;;;;;;6269955;28;20040;-60
2021/12/30 14:10:55;;;;;;;43.23;22.97;;;;;;;;;;6272457;28;20067;-58
2021/12/30 14:13:57;;;;;;;40.55;22.48;;;;;;;;;;6271172;28;20301;-61
2021/12/30 14:17:00;;;;;;;42.43;22.47;;;;;;;;;;6266773;28;20049;-58
2021/12/30 14:20:01;;;;;;;38.67;21.13;;;;;;;;;;6271708;28;20122;-60
2021/12/30 14:23:02;;;;;;;37.80;21.27;;;;;;;;;;6271296;28;20516;-60
2021/12/30 14:26:19;;;;;;;39.95;23.75;;;;;;;;;;6268817;28;20056;-63
2021/12/30 14:29:23;;;;;;;36.25;20.65;;;;;;;;;;6270267;28;20072;-59
2021/12/30 14:32:25;;;;;;;34.67;18.95;;;;;;;;;;6268567;28;20404;-60
2021/12/30 14:35:26;;;;;;;38.28;22.25;;;;;;;;;;6267551;28;20427;-60
2021/12/30 14:38:28;;;;;;;32.95;17.25;;;;;;;;;;6270949;28;20123;-61
2021/12/30 14:41:34;;;;;;;31.83;16.40;;;;;;;;;;6272679;28;20512;-62
2021/12/30 14:44:35;;;;;;;33.70;17.75;;;;;;;;;;6271308;28;20052;-60
2021/12/30 14:47:45;;;;;;;36.15;18.90;;;;;;;;;;6265536;28;20055;-60
2021/12/30 14:50:46;;;;;;;35.20;20.42;;;;;;;;;;6271691;28;20048;-59
2021/12/30 14:53:47;;;;;;;28.48;15.15;;;;;;;;;;6270001;28;20068;-61
2021/12/30 14:56:47;;;;;;;28.52;15.82;;;;;;;;;;6263935;28;20055;-62
2021/12/30 14:59:49;;;;;;;29.85;16.27;;;;;;;;;;6265989;28;20064;-61
2021/12/30 15:02:50;;;;;;;29.10;14.77;;;;;;;;;;6270029;28;20057;-58
2021/12/30 15:05:51;;;;;;;29.52;16.83;;;;;;;;;;6269260;28;20463;-62
2021/12/30 15:08:53;;;;;;;29.70;16.42;;;;;;;;;;6271265;28;20056;-59
2021/12/30 15:11:53;;;;;;;32.25;17.42;;;;;;;;;;6271792;28;20083;-58
2021/12/30 15:14:55;;;;;;;28.73;15.45;;;;;;;;;;6271491;28;20045;-59
2021/12/30 15:17:56;;;;;;;31.30;16.90;;;;;;;;;;6266764;28;20168;-60
2021/12/30 15:20:58;;;;;;;30.15;16.55;;;;;;;;;;6269262;28;20608;-59
2021/12/30 15:23:59;;;;;;;34.83;16.92;;;;;;;;;;6267658;28;20503;-58
2021/12/30 15:26:59;;;;;;;28.63;15.43;;;;;;;;;;6263395;28;20063;-61
2021/12/30 15:30:01;;;;;;;30.00;16.92;;;;;;;;;;6263804;28;20056;-58
2021/12/30 15:33:02;;;;;;;29.20;14.60;;;;;;;;;;6265688;28;20083;-59
2021/12/30 15:36:03;;;;;;;36.10;19.80;;;;;;;;;;6261258;28;20138;-60
2021/12/30 15:39:04;;;;;;;35.42;18.88;;;;;;;;;;6264639;28;20179;-58
2021/12/30 15:42:05;;;;;;;36.95;18.90;;;;;;;;;;6265227;28;20063;-60
2021/12/30 15:45:07;;;;;;;38.72;23.02;;;;;;;;;;6263122;28;20889;-59
2021/12/30 15:48:08;;;;;;;36.40;18.02;;;;;;;;;;6261977;28;20052;-60
2021/12/30 15:51:08;;;;;;;32.53;16.85;;;;;;;;;;6264469;28;20132;-59
2021/12/30 15:54:09;;;;;;;32.13;16.95;;;;;;;;;;6266599;28;20832;-57
2021/12/30 15:57:10;;;;;;;36.35;16.98;;;;;;;;;;6263277;28;20639;-57
2021/12/30 16:00:13;;;;;;;33.22;15.98;;;;;;;;;;6265545;28;20518;-58
2021/12/30 16:03:14;;;;;;;37.78;17.42;;;;;;;;;;6265531;28;20144;-60
2021/12/30 16:06:15;;;;;;;33.38;16.27;;;;;;;;;;6264401;28;20458;-58
2021/12/30 16:09:19;;;;;;;38.03;16.88;;;;;;;;;;6264742;28;20048;-58
2021/12/30 16:12:20;;;;;;;36.00;17.63;;;;;;;;;;6266561;28;21259;-58
2021/12/30 16:15:23;;;;;;;47.63;21.83;;;;;;;;;;6264656;28;20055;-60
2021/12/30 16:18:24;;;;;;;40.15;21.15;;;;;;;;;;6263049;28;20167;-61
2021/12/30 16:21:24;;;;;;;32.10;17.65;;;;;;;;;;6265201;28;20484;-60
2021/12/30 16:24:25;;;;;;;39.65;21.85;;;;;;;;;;6264986;28;20048;-58
2021/12/30 16:27:26;;;;;;;39.85;21.08;;;;;;;;;;6258750;28;20049;-56
2021/12/30 16:30:29;;;;;;;43.10;20.63;;;;;;;;;;6268070;28;20044;-59
2021/12/30 16:33:30;;;;;;;;;;;;;;;;;;6274013;28;20121;-57
2021/12/30 16:36:31;;;;;;;41.20;18.52;;;;;;;;;;6265961;28;19940;-57
2021/12/30 16:39:34;;;;;;;39.88;18.25;;;;;;;;;;6268594;28;20045;-53
2021/12/30 16:42:37;;;;;;;38.33;20.13;;;;;;;;;;6270525;28;20143;-60
2021/12/30 16:45:38;;;;;;;38.78;19.55;;;;;;;;;;6268077;28;20238;-59
2021/12/30 16:48:39;;;;;;;62.70;32.83;;;;;;;;;;6267531;28;20087;-55
2021/12/30 16:51:40;;;;;;;41.67;20.65;;;;;;;;;;6271481;28;20561;-55
2021/12/30 16:54:41;;;;;;;51.40;27.77;;;;;;;;;;6269465;28;20087;-56
2021/12/30 16:57:41;;;;;;;49.22;28.83;;;;;;;;;;6266261;28;20052;-59
2021/12/30 17:00:43;;;;;;;67.25;37.03;;;;;;;;;;6270024;28;20091;-59
2021/12/30 17:03:44;;;;;;;59.80;30.55;;;;;;;;;;6272386;28;20098;-56
2021/12/30 17:06:45;;;;;;;43.65;21.23;;;;;;;;;;6267047;28;20054;-59
2021/12/30 17:09:47;;;;;;;47.17;25.05;;;;;;;;;;6266471;28;20044;-58
2021/12/30 17:12:48;;;;;;;47.28;24.63;;;;;;;;;;6270616;28;20048;-61
2021/12/30 17:15:49;;;;;;;42.10;22.83;;;;;;;;;;6271848;28;20056;-59
2021/12/30 17:18:50;;;;;;;42.95;22.98;;;;;;;;;;6270845;28;20049;-61
2021/12/30 17:21:50;;;;;;;39.35;20.23;;;;;;;;;;6272164;28;20044;-62
2021/12/30 17:24:51;;;;;;;37.67;19.30;;;;;;;;;;6264925;28;20152;-58
2021/12/30 17:27:55;;;;;;;40.80;19.02;;;;;;;;;;6264155;28;20045;-57
2021/12/30 17:30:58;;;;;;;38.20;20.35;;;;;;;;;;6267650;28;20075;-61
2021/12/30 17:34:03;;;;;;;37.30;20.25;;;;;;;;;;6270888;28;20198;-56
2021/12/30 17:37:04;;;;;;;38.55;19.77;;;;;;;;;;6271735;28;20065;-62
2021/12/30 17:40:12;;;;;;;45.03;22.50;;;;;;;;;;6265959;28;20084;-60
2021/12/30 17:43:14;;;;;;;73.95;40.22;;;;;;;;;;6271309;28;20092;-59
2021/12/30 17:46:14;;;;;;;41.17;20.63;;;;;;;;;;6271949;28;20061;-61